createdAt,value
2019-01-04T00:00:40.757Z,11.97
2019-01-04T00:01:48.652Z,8.05
2019-01-04T00:02:53.750Z,9.08
2019-01-04T00:03:59.116Z,8.68
2019-01-04T00:05:06.533Z,8.50
2019-01-04T00:06:11.565Z,9.05
2019-01-04T00:07:16.405Z,6.80
2019-01-04T00:08:21.384Z,9.65
2019-01-04T00:09:26.469Z,7.17
2019-01-04T00:10:31.488Z,9.33
2019-01-04T00:11:36.274Z,10.55
2019-01-04T00:12:41.334Z,8.98
2019-01-04T00:13:46.200Z,9.30
2019-01-04T00:14:51.231Z,11.15
2019-01-04T00:15:56.075Z,9.23
2019-01-04T00:17:00.940Z,12.68
2019-01-04T00:18:05.987Z,8.95
2019-01-04T00:19:11.106Z,10.20
2019-01-04T00:20:16.140Z,8.68
2019-01-04T00:21:20.984Z,9.73
2019-01-04T00:22:25.876Z,8.03
2019-01-04T00:23:30.754Z,9.03
2019-01-04T00:24:35.657Z,9.30
2019-01-04T00:25:40.610Z,9.23
2019-01-04T00:26:45.484Z,12.82
2019-01-04T00:27:50.608Z,10.95
2019-01-04T00:28:55.440Z,9.20
2019-01-04T00:30:00.406Z,9.00
2019-01-04T00:31:05.217Z,9.08
2019-01-04T00:32:10.157Z,7.53
2019-01-04T00:33:15.201Z,10.90
2019-01-04T00:34:20.028Z,11.75
2019-01-04T00:35:25.065Z,9.40
2019-01-04T00:36:29.999Z,8.93
2019-01-04T00:37:34.839Z,8.58
2019-01-04T00:38:39.719Z,8.38
2019-01-04T00:39:44.676Z,8.13
2019-01-04T00:40:49.464Z,7.78
2019-01-04T00:41:54.405Z,9.70
2019-01-04T00:42:59.303Z,9.80
2019-01-04T00:44:04.284Z,11.43
2019-01-04T00:45:09.772Z,9.25
2019-01-04T00:46:14.606Z,9.95
2019-01-04T00:47:19.532Z,9.68
2019-01-04T00:48:24.407Z,10.70
2019-01-04T00:49:29.351Z,9.48
2019-01-04T00:50:34.187Z,7.55
2019-01-04T00:51:39.120Z,8.80
2019-01-04T00:52:44.052Z,10.40
2019-01-04T00:53:49.028Z,8.88
2019-01-04T00:54:55.420Z,10.68
2019-01-04T00:56:58.759Z,9.73
2019-01-04T00:58:22.632Z,8.33
2019-01-04T01:00:16.424Z,11.63
2019-01-04T01:02:14.712Z,7.92
2019-01-04T01:04:27.947Z,6.87
2019-01-04T01:06:29.315Z,6.55
2019-01-04T01:08:10.896Z,8.25
2019-01-04T01:09:51.996Z,7.62
2019-01-04T01:11:43.708Z,9.30
2019-01-04T01:13:25.221Z,6.05
2019-01-04T01:15:06.899Z,7.55
2019-01-04T01:16:48.327Z,7.42
2019-01-04T01:18:29.181Z,8.50
2019-01-04T01:20:11.272Z,6.53
2019-01-04T01:22:05.457Z,6.25
2019-01-04T01:24:06.218Z,9.33
2019-01-04T01:26:03.809Z,7.37
2019-01-04T01:27:45.311Z,7.75
2019-01-04T01:29:33.989Z,7.10
2019-01-04T01:31:31.353Z,6.95
2019-01-04T01:32:44.855Z,5.65
2019-01-04T01:34:32.331Z,8.38
2019-01-04T01:36:12.411Z,6.92
2019-01-04T01:38:01.631Z,6.35
2019-01-04T01:40:02.539Z,8.70
2019-01-04T01:41:40.971Z,7.15
2019-01-04T01:43:17.407Z,8.60
2019-01-04T01:45:01.968Z,5.95
2019-01-04T01:46:54.041Z,9.58
2019-01-04T01:48:15.556Z,6.95
2019-01-04T01:49:56.007Z,7.42
2019-01-04T01:51:31.130Z,8.73
2019-01-04T01:52:48.036Z,9.20
2019-01-04T01:53:53.851Z,7.87
2019-01-04T01:54:58.640Z,6.65
2019-01-04T01:56:03.468Z,9.60
2019-01-04T01:57:08.202Z,8.10
2019-01-04T01:58:13.121Z,7.40
2019-01-04T01:59:18.089Z,10.45
2019-01-04T02:00:23.136Z,6.85
2019-01-04T02:01:27.964Z,7.87
2019-01-04T02:02:32.717Z,10.25
2019-01-04T02:03:37.452Z,7.15
2019-01-04T02:04:42.444Z,6.90
2019-01-04T02:05:47.209Z,7.17
2019-01-04T02:06:52.031Z,6.87
2019-01-04T02:07:56.868Z,6.90
2019-01-04T02:09:07.133Z,9.83
2019-01-04T02:10:09.536Z,5.72
2019-01-04T02:11:14.591Z,6.30
2019-01-04T02:12:19.483Z,5.35
2019-01-04T02:13:24.416Z,5.65
2019-01-04T02:14:29.227Z,5.92
2019-01-04T02:15:34.145Z,6.80
2019-01-04T02:16:39.044Z,7.70
2019-01-04T02:17:43.955Z,5.20
2019-01-04T02:18:48.931Z,4.58
2019-01-04T02:19:53.820Z,6.60
2019-01-04T02:20:58.679Z,6.25
2019-01-04T02:22:03.468Z,5.35
2019-01-04T02:23:08.316Z,4.78
2019-01-04T02:24:13.163Z,6.00
2019-01-04T02:25:18.163Z,6.60
2019-01-04T02:26:22.924Z,5.40
2019-01-04T02:27:27.801Z,5.95
2019-01-04T02:28:32.691Z,5.05
2019-01-04T02:29:37.507Z,6.10
2019-01-04T02:30:42.259Z,6.17
2019-01-04T02:31:47.163Z,7.80
2019-01-04T02:32:52.030Z,5.85
2019-01-04T02:33:56.764Z,9.50
2019-01-04T02:35:01.552Z,6.65
2019-01-04T02:36:06.404Z,6.15
2019-01-04T02:37:11.275Z,5.85
2019-01-04T02:38:16.024Z,7.08
2019-01-04T02:39:20.760Z,7.60
2019-01-04T02:40:25.755Z,6.90
2019-01-04T02:41:30.792Z,7.85
2019-01-04T02:42:35.549Z,7.60
2019-01-04T02:43:40.621Z,6.10
2019-01-04T02:44:45.643Z,7.33
2019-01-04T02:45:50.525Z,6.25
2019-01-04T02:46:55.258Z,6.15
2019-01-04T02:48:00.012Z,5.60
2019-01-04T02:49:04.859Z,6.40
2019-01-04T02:50:09.811Z,6.22
2019-01-04T02:51:14.557Z,5.47
2019-01-04T02:52:19.299Z,5.00
2019-01-04T02:53:24.137Z,8.43
2019-01-04T02:54:29.357Z,4.50
2019-01-04T02:55:34.119Z,6.05
2019-01-04T02:56:40.040Z,12.53
2019-01-04T02:57:44.879Z,4.95
2019-01-04T02:58:49.746Z,4.97
2019-01-04T02:59:54.520Z,7.33
2019-01-04T03:00:59.409Z,5.12
2019-01-04T03:02:05.678Z,5.53
2019-01-04T03:03:10.419Z,6.85
2019-01-04T03:04:15.146Z,7.87
2019-01-04T03:05:20.030Z,5.70
2019-01-04T03:06:24.849Z,4.92
2019-01-04T03:07:29.581Z,6.08
2019-01-04T03:08:34.409Z,6.45
2019-01-04T03:09:39.209Z,7.70
2019-01-04T03:10:44.168Z,4.00
2019-01-04T03:11:48.896Z,4.95
2019-01-04T03:12:53.629Z,7.28
2019-01-04T03:13:58.476Z,5.37
2019-01-04T03:15:03.408Z,5.90
2019-01-04T03:16:08.169Z,6.12
2019-01-04T03:17:12.934Z,6.37
2019-01-04T03:18:17.747Z,8.03
2019-01-04T03:19:22.594Z,7.35
2019-01-04T03:20:27.411Z,7.72
2019-01-04T03:21:32.151Z,7.83
2019-01-04T03:22:37.135Z,5.05
2019-01-04T03:23:41.992Z,6.83
2019-01-04T03:24:46.831Z,5.25
2019-01-04T03:25:51.683Z,6.42
2019-01-04T03:26:56.411Z,5.08
2019-01-04T03:28:01.171Z,6.03
2019-01-04T03:29:06.023Z,10.13
2019-01-04T03:30:10.893Z,7.40
2019-01-04T03:31:15.801Z,7.58
2019-01-04T03:32:20.537Z,5.72
2019-01-04T03:33:25.459Z,6.50
2019-01-04T03:34:30.253Z,5.70
2019-01-04T03:35:35.203Z,6.55
2019-01-04T03:36:39.942Z,7.92
2019-01-04T03:37:44.784Z,8.20
2019-01-04T03:38:49.724Z,7.37
2019-01-04T03:39:54.700Z,8.88
2019-01-04T03:40:59.464Z,9.20
2019-01-04T03:42:04.191Z,4.95
2019-01-04T03:43:09.094Z,5.53
2019-01-04T03:44:13.908Z,3.90
2019-01-04T03:45:18.665Z,7.55
2019-01-04T03:46:24.780Z,8.35
2019-01-04T03:47:29.634Z,7.87
2019-01-04T03:48:34.452Z,7.62
2019-01-04T03:49:39.435Z,8.78
2019-01-04T03:50:44.296Z,7.80
2019-01-04T03:51:49.127Z,7.12
2019-01-04T03:52:53.851Z,5.45
2019-01-04T03:53:58.568Z,5.90
2019-01-04T03:55:03.460Z,8.30
2019-01-04T03:56:08.401Z,6.53
2019-01-04T03:57:13.377Z,5.67
2019-01-04T03:58:18.091Z,6.17
2019-01-04T03:59:22.927Z,7.33
2019-01-04T04:00:28.080Z,7.20
2019-01-04T04:01:32.803Z,7.90
2019-01-04T04:02:37.666Z,7.70
2019-01-04T04:03:42.644Z,8.00
2019-01-04T04:04:47.910Z,7.05
2019-01-04T04:05:52.986Z,7.92
2019-01-04T04:06:57.792Z,9.75
2019-01-04T04:08:02.664Z,6.72
2019-01-04T04:09:08.791Z,7.65
2019-01-04T04:10:13.551Z,5.90
2019-01-04T04:11:18.387Z,7.35
2019-01-04T04:12:23.312Z,7.83
2019-01-04T04:13:28.061Z,8.30
2019-01-04T04:14:32.825Z,7.22
2019-01-04T04:15:37.857Z,6.00
2019-01-04T04:16:42.715Z,8.78
2019-01-04T04:17:47.423Z,8.03
2019-01-04T04:18:52.151Z,8.53
2019-01-04T04:19:56.994Z,7.87
2019-01-04T04:21:01.794Z,9.65
2019-01-04T04:22:06.641Z,9.53
2019-01-04T04:23:11.377Z,10.05
2019-01-04T04:24:16.103Z,9.18
2019-01-04T04:25:21.001Z,9.40
2019-01-04T04:26:25.898Z,11.73
2019-01-04T04:27:30.750Z,6.78
2019-01-04T04:28:35.494Z,11.35
2019-01-04T04:29:40.460Z,13.40
2019-01-04T04:30:45.631Z,9.00
2019-01-04T04:31:50.455Z,7.90
2019-01-04T04:32:55.420Z,10.13
2019-01-04T04:34:00.259Z,9.38
2019-01-04T04:35:05.262Z,6.95
2019-01-04T04:36:10.603Z,10.65
2019-01-04T04:37:15.485Z,9.73
2019-01-04T04:38:20.490Z,8.70
2019-01-04T04:39:25.335Z,9.10
2019-01-04T04:40:30.827Z,11.30
2019-01-04T04:41:35.774Z,12.58
2019-01-04T04:42:40.560Z,10.75
2019-01-04T04:43:45.426Z,9.73
2019-01-04T04:44:50.164Z,7.92
2019-01-04T04:45:55.253Z,8.38
2019-01-04T04:46:59.948Z,7.78
2019-01-04T04:48:04.971Z,8.40
2019-01-04T04:49:09.884Z,8.55
2019-01-04T04:50:14.632Z,8.35
2019-01-04T04:51:19.512Z,6.53
2019-01-04T04:52:24.440Z,8.30
2019-01-04T04:53:29.338Z,8.73
2019-01-04T04:54:34.067Z,6.80
2019-01-04T04:55:38.931Z,7.60
2019-01-04T04:56:43.650Z,7.87
2019-01-04T04:57:48.539Z,6.03
2019-01-04T04:58:53.484Z,10.65
2019-01-04T04:59:58.528Z,7.12
2019-01-04T05:01:03.539Z,7.95
2019-01-04T05:02:08.376Z,7.67
2019-01-04T05:03:13.113Z,8.40
2019-01-04T05:04:17.950Z,12.53
2019-01-04T05:05:22.867Z,8.90
2019-01-04T05:06:27.826Z,8.33
2019-01-04T05:07:32.679Z,7.22
2019-01-04T05:08:37.783Z,9.25
2019-01-04T05:09:42.500Z,8.88
2019-01-04T05:10:47.527Z,9.20
2019-01-04T05:11:52.442Z,7.72
2019-01-04T05:12:57.712Z,9.05
2019-01-04T05:14:02.553Z,7.65
2019-01-04T05:15:07.415Z,9.50
2019-01-04T05:16:12.235Z,13.78
2019-01-04T05:17:16.988Z,21.70
2019-01-04T05:18:21.786Z,13.35
2019-01-04T05:19:26.899Z,18.85
2019-01-04T05:20:31.811Z,18.50
2019-01-04T05:21:36.759Z,12.03
2019-01-04T05:22:41.556Z,14.03
2019-01-04T05:23:46.333Z,20.30
2019-01-04T05:24:51.278Z,15.88
2019-01-04T05:25:56.181Z,16.60
2019-01-04T05:27:00.959Z,16.52
2019-01-04T05:28:05.688Z,21.55
2019-01-04T05:29:10.611Z,16.73
2019-01-04T05:30:15.536Z,16.73
2019-01-04T05:31:20.371Z,17.65
2019-01-04T05:32:25.121Z,16.20
2019-01-04T05:33:30.024Z,13.83
2019-01-04T05:34:35.063Z,18.17
2019-01-04T05:35:39.994Z,9.38
2019-01-04T05:36:45.007Z,8.83
2019-01-04T05:37:49.905Z,14.03
2019-01-04T05:38:54.856Z,12.15
2019-01-04T05:39:59.617Z,12.95
2019-01-04T05:41:04.437Z,10.40
2019-01-04T05:42:09.467Z,11.45
2019-01-04T05:43:14.810Z,11.60
2019-01-04T05:44:19.637Z,12.18
2019-01-04T05:45:24.687Z,11.97
2019-01-04T05:46:29.597Z,13.35
2019-01-04T05:47:34.499Z,10.68
2019-01-04T05:48:40.332Z,10.50
2019-01-04T05:49:45.098Z,12.60
2019-01-04T05:50:49.915Z,9.05
2019-01-04T05:51:54.828Z,10.82
2019-01-04T05:52:59.736Z,6.65
2019-01-04T05:54:04.500Z,8.85
2019-01-04T05:55:09.546Z,7.92
2019-01-04T05:56:14.533Z,6.75
2019-01-04T05:57:19.283Z,9.53
2019-01-04T05:58:24.083Z,5.28
2019-01-04T05:59:28.971Z,7.60
2019-01-04T06:00:33.789Z,6.08
2019-01-04T06:01:38.676Z,5.47
2019-01-04T06:02:43.445Z,6.72
2019-01-04T06:03:48.444Z,6.92
2019-01-04T06:04:53.391Z,5.42
2019-01-04T06:05:58.262Z,5.00
2019-01-04T06:07:03.208Z,6.22
2019-01-04T06:08:07.927Z,5.47
2019-01-04T06:09:12.886Z,3.20
2019-01-04T06:10:17.604Z,5.92
2019-01-04T06:11:22.352Z,5.05
2019-01-04T06:12:27.361Z,5.95
2019-01-04T06:13:32.167Z,7.87
2019-01-04T06:14:37.020Z,6.47
2019-01-04T06:15:41.860Z,6.70
2019-01-04T06:16:46.811Z,7.62
2019-01-04T06:17:51.643Z,8.50
2019-01-04T06:18:56.612Z,6.05
2019-01-04T06:20:01.465Z,5.22
2019-01-04T06:21:06.320Z,6.65
2019-01-04T06:22:11.163Z,6.42
2019-01-04T06:23:16.197Z,7.10
2019-01-04T06:24:21.210Z,7.08
2019-01-04T06:25:26.236Z,7.35
2019-01-04T06:26:31.360Z,7.10
2019-01-04T06:27:36.862Z,7.35
2019-01-04T06:28:42.908Z,7.05
2019-01-04T06:29:47.757Z,7.85
2019-01-04T06:30:52.649Z,8.18
2019-01-04T06:31:57.652Z,7.90
2019-01-04T06:33:02.581Z,8.00
2019-01-04T06:34:07.441Z,6.20
2019-01-04T06:35:12.587Z,9.58
2019-01-04T06:36:17.563Z,8.20
2019-01-04T06:37:22.306Z,11.70
2019-01-04T06:38:27.235Z,7.67
2019-01-04T06:39:32.305Z,7.67
2019-01-04T06:40:37.191Z,8.65
2019-01-04T06:41:42.036Z,9.35
2019-01-04T06:42:47.245Z,10.58
2019-01-04T06:43:52.099Z,9.53
2019-01-04T06:44:56.843Z,9.88
2019-01-04T06:46:01.809Z,11.28
2019-01-04T06:47:31.799Z,7.97
2019-01-04T06:48:36.632Z,12.03
2019-01-04T06:49:41.861Z,14.53
2019-01-04T06:50:46.640Z,8.50
2019-01-04T06:51:51.634Z,9.33
2019-01-04T06:52:56.489Z,12.78
2019-01-04T06:54:01.533Z,8.40
2019-01-04T06:55:52.565Z,8.18
2019-01-04T06:56:57.649Z,7.35
2019-01-04T06:58:02.456Z,9.53
2019-01-04T06:59:07.456Z,12.35
2019-01-04T07:00:12.550Z,11.90
2019-01-04T07:01:17.541Z,10.93
2019-01-04T07:02:22.815Z,12.13
2019-01-04T07:03:27.867Z,9.30
2019-01-04T07:04:32.674Z,11.83
2019-01-04T07:05:37.615Z,10.00
2019-01-04T07:06:42.725Z,12.55
2019-01-04T07:07:47.659Z,12.63
2019-01-04T07:08:52.560Z,7.62
2019-01-04T07:09:57.508Z,10.08
2019-01-04T07:11:02.448Z,8.73
2019-01-04T07:12:07.681Z,9.93
2019-01-04T07:13:12.740Z,10.23
2019-01-04T07:14:17.520Z,9.10
2019-01-04T07:15:22.464Z,12.28
2019-01-04T07:16:27.383Z,11.00
2019-01-04T07:17:32.343Z,8.55
2019-01-04T07:18:37.233Z,10.90
2019-01-04T07:19:42.126Z,9.88
2019-01-04T07:20:47.207Z,10.48
2019-01-04T07:21:52.188Z,8.15
2019-01-04T07:22:57.120Z,9.08
2019-01-04T07:24:02.064Z,7.37
2019-01-04T07:25:07.163Z,7.62
2019-01-04T07:26:12.095Z,11.75
2019-01-04T07:27:17.163Z,9.55
2019-01-04T07:28:22.090Z,8.58
2019-01-04T07:29:27.198Z,8.70
2019-01-04T07:30:32.100Z,8.15
2019-01-04T07:31:36.969Z,10.28
2019-01-04T07:32:41.736Z,8.90
2019-01-04T07:33:46.636Z,7.60
2019-01-04T07:34:51.611Z,8.33
2019-01-04T07:35:56.431Z,8.90
2019-01-04T07:37:01.284Z,8.50
2019-01-04T07:38:06.333Z,7.97
2019-01-04T07:39:11.322Z,8.10
2019-01-04T07:40:16.167Z,9.33
2019-01-04T07:41:21.047Z,11.53
2019-01-04T07:42:25.999Z,10.23
2019-01-04T07:43:30.768Z,6.50
2019-01-04T07:44:35.760Z,9.30
2019-01-04T07:45:40.747Z,10.85
2019-01-04T07:46:45.526Z,10.70
2019-01-04T07:47:50.297Z,8.65
2019-01-04T07:48:55.083Z,9.38
2019-01-04T07:50:00.469Z,11.60
2019-01-04T07:51:05.312Z,8.53
2019-01-04T07:52:10.095Z,10.28
2019-01-04T07:53:14.867Z,11.00
2019-01-04T07:54:19.884Z,11.05
2019-01-04T07:55:24.853Z,11.18
2019-01-04T07:56:29.691Z,9.63
2019-01-04T07:57:34.588Z,8.48
2019-01-04T07:58:39.452Z,11.10
2019-01-04T07:59:44.367Z,11.00
2019-01-04T08:00:49.434Z,10.43
2019-01-04T08:01:54.338Z,9.90
2019-01-04T08:03:04.063Z,10.25
2019-01-04T08:04:09.333Z,11.30
2019-01-04T08:05:25.778Z,10.53
2019-01-04T08:06:30.599Z,8.80
2019-01-04T08:07:35.463Z,11.55
2019-01-04T08:08:40.398Z,10.58
2019-01-04T08:09:45.897Z,9.83
2019-01-04T08:10:50.975Z,12.33
2019-01-04T08:11:55.928Z,10.10
2019-01-04T08:13:01.952Z,11.85
2019-01-04T08:14:07.028Z,10.82
2019-01-04T08:15:12.371Z,13.53
2019-01-04T08:16:17.340Z,15.95
2019-01-04T08:17:22.279Z,13.32
2019-01-04T08:18:27.272Z,16.50
2019-01-04T08:19:32.185Z,12.65
2019-01-04T08:20:37.536Z,12.78
2019-01-04T08:21:42.676Z,11.70
2019-01-04T08:22:51.154Z,12.28
2019-01-04T08:23:56.111Z,11.12
2019-01-04T08:25:01.516Z,13.25
2019-01-04T08:26:06.617Z,12.18
2019-01-04T08:27:11.539Z,15.65
2019-01-04T08:28:16.645Z,14.18
2019-01-04T08:29:21.694Z,13.72
2019-01-04T08:30:26.635Z,12.88
2019-01-04T08:31:31.636Z,13.03
2019-01-04T08:32:36.716Z,13.88
2019-01-04T08:33:41.633Z,11.78
2019-01-04T08:34:46.516Z,16.23
2019-01-04T08:35:51.733Z,14.55
2019-01-04T08:36:56.552Z,13.75
2019-01-04T08:38:01.294Z,14.95
2019-01-04T08:39:07.851Z,14.30
2019-01-04T08:40:13.807Z,12.40
2019-01-04T08:41:18.756Z,13.35
2019-01-04T08:42:23.616Z,13.30
2019-01-04T08:43:28.433Z,15.58
2019-01-04T08:44:33.510Z,14.78
2019-01-04T08:45:38.383Z,15.23
2019-01-04T08:46:43.468Z,16.57
2019-01-04T08:47:48.181Z,13.80
2019-01-04T08:48:53.304Z,12.78
2019-01-04T08:49:58.164Z,15.23
2019-01-04T08:51:03.139Z,15.28
2019-01-04T08:52:08.112Z,15.88
2019-01-04T08:53:13.008Z,16.60
2019-01-04T08:54:17.769Z,13.32
2019-01-04T08:55:27.657Z,15.48
2019-01-04T08:56:35.204Z,17.25
2019-01-04T08:57:40.064Z,15.88
2019-01-04T08:58:45.428Z,17.45
2019-01-04T08:59:50.331Z,16.23
2019-01-04T09:00:55.273Z,16.45
2019-01-04T09:02:00.411Z,16.87
2019-01-04T09:03:05.504Z,15.43
2019-01-04T09:04:10.377Z,14.75
2019-01-04T09:05:15.306Z,15.83
2019-01-04T09:06:22.290Z,16.97
2019-01-04T09:07:27.120Z,18.87
2019-01-04T09:08:31.865Z,14.30
2019-01-04T09:09:36.782Z,15.53
2019-01-04T09:10:41.873Z,15.88
2019-01-04T09:11:46.818Z,15.70
2019-01-04T09:12:51.656Z,13.95
2019-01-04T09:13:56.620Z,16.27
2019-01-04T09:15:01.573Z,13.93
2019-01-04T09:16:06.724Z,16.67
2019-01-04T09:17:11.572Z,15.13
2019-01-04T09:18:16.457Z,19.15
2019-01-04T09:19:21.504Z,17.87
2019-01-04T09:20:26.498Z,21.15
2019-01-04T09:21:31.336Z,15.53
2019-01-04T09:22:36.371Z,18.87
2019-01-04T09:23:41.634Z,16.57
2019-01-04T09:24:46.685Z,16.40
2019-01-04T09:25:51.628Z,15.43
2019-01-04T09:26:56.615Z,16.17
2019-01-04T09:28:01.605Z,18.57
2019-01-04T09:29:06.704Z,19.75
2019-01-04T09:30:15.977Z,14.78
2019-01-04T09:31:21.089Z,18.27
2019-01-04T09:32:26.075Z,18.48
2019-01-04T09:33:31.065Z,19.80
2019-01-04T09:34:36.032Z,17.73
2019-01-04T09:35:41.149Z,12.95
2019-01-04T09:36:46.038Z,16.65
2019-01-04T09:37:50.785Z,17.82
2019-01-04T09:38:55.628Z,15.20
2019-01-04T09:40:00.667Z,18.60
2019-01-04T09:41:28.964Z,18.95
2019-01-04T09:42:33.925Z,15.05
2019-01-04T09:43:38.662Z,18.00
2019-01-04T09:44:44.520Z,18.50
2019-01-04T09:45:49.543Z,18.40
2019-01-04T09:46:54.520Z,19.35
2019-01-04T09:47:59.392Z,20.57
2019-01-04T09:49:04.464Z,15.75
2019-01-04T09:50:10.764Z,16.42
2019-01-04T09:51:15.829Z,18.67
2019-01-04T09:52:20.878Z,22.87
2019-01-04T09:53:25.751Z,17.23
2019-01-04T09:54:30.710Z,14.95
2019-01-04T09:55:35.697Z,16.23
2019-01-04T09:56:40.484Z,14.13
2019-01-04T09:57:45.635Z,14.33
2019-01-04T09:58:50.518Z,17.10
2019-01-04T09:59:55.256Z,15.65
2019-01-04T10:01:00.221Z,16.50
2019-01-04T10:02:05.110Z,16.97
2019-01-04T10:03:10.140Z,25.17
2019-01-04T10:04:14.890Z,13.43
2019-01-04T10:05:20.025Z,17.75
2019-01-04T10:06:24.909Z,18.32
2019-01-04T10:07:29.924Z,15.95
2019-01-04T10:08:34.853Z,19.23
2019-01-04T10:09:39.819Z,20.32
2019-01-04T10:10:44.848Z,17.27
2019-01-04T10:11:50.013Z,18.85
2019-01-04T10:12:54.877Z,15.83
2019-01-04T10:13:59.972Z,20.43
2019-01-04T10:15:05.407Z,15.53
2019-01-04T10:16:10.492Z,19.80
2019-01-04T10:17:15.318Z,20.30
2019-01-04T10:18:20.297Z,15.90
2019-01-04T10:19:25.413Z,15.05
2019-01-04T10:20:30.305Z,21.42
2019-01-04T10:21:35.113Z,18.80
2019-01-04T10:22:40.171Z,17.57
2019-01-04T10:23:45.222Z,22.20
2019-01-04T10:24:50.053Z,16.75
2019-01-04T10:25:55.165Z,19.48
2019-01-04T10:27:00.175Z,19.25
2019-01-04T10:28:05.160Z,16.82
2019-01-04T10:29:10.089Z,17.32
2019-01-04T10:30:29.997Z,19.57
2019-01-04T10:31:35.127Z,18.73
2019-01-04T10:32:40.016Z,16.60
2019-01-04T10:33:45.156Z,18.67
2019-01-04T10:34:50.207Z,18.00
2019-01-04T10:35:55.110Z,15.80
2019-01-04T10:37:00.086Z,21.97
2019-01-04T10:38:05.344Z,21.97
2019-01-04T10:39:10.320Z,19.92
2019-01-04T10:40:15.168Z,19.45
2019-01-04T10:41:20.323Z,22.10
2019-01-04T10:42:25.263Z,21.60
2019-01-04T10:43:30.362Z,24.02
2019-01-04T10:44:35.764Z,30.23
2019-01-04T10:45:40.515Z,23.22
2019-01-04T10:46:45.629Z,22.05
2019-01-04T10:47:50.524Z,20.12
2019-01-04T10:48:55.565Z,20.80
2019-01-04T10:50:00.640Z,24.63
2019-01-04T10:51:05.746Z,20.85
2019-01-04T10:52:10.839Z,20.52
2019-01-04T10:53:15.616Z,21.57
2019-01-04T10:54:20.405Z,21.30
2019-01-04T10:55:25.344Z,21.80
2019-01-04T10:56:30.245Z,22.75
2019-01-04T10:57:35.279Z,19.75
2019-01-04T10:58:40.412Z,21.65
2019-01-04T10:59:45.393Z,21.82
2019-01-04T11:00:50.207Z,22.05
2019-01-04T11:01:56.249Z,21.57
2019-01-04T11:03:01.359Z,28.45
2019-01-04T11:04:06.674Z,27.62
2019-01-04T11:05:11.676Z,21.57
2019-01-04T11:06:16.760Z,21.97
2019-01-04T11:07:21.904Z,21.57
2019-01-04T11:08:27.236Z,21.20
2019-01-04T11:09:32.139Z,21.52
2019-01-04T11:10:37.093Z,19.65
2019-01-04T11:11:42.100Z,26.40
2019-01-04T11:12:46.942Z,22.02
2019-01-04T11:13:51.676Z,21.17
2019-01-04T11:14:56.701Z,21.95
2019-01-04T11:16:01.813Z,23.77
2019-01-04T11:17:06.908Z,28.05
2019-01-04T11:18:11.664Z,27.35
2019-01-04T11:19:16.742Z,22.95
2019-01-04T11:20:47.734Z,25.35
2019-01-04T11:21:54.286Z,27.00
2019-01-04T11:23:02.407Z,25.88
2019-01-04T11:24:55.916Z,29.07
2019-01-04T11:26:20.432Z,20.37
2019-01-04T11:28:01.928Z,22.65
2019-01-04T11:29:24.360Z,18.40
2019-01-04T11:30:39.965Z,18.90
2019-01-04T11:32:34.425Z,21.73
2019-01-04T11:33:57.215Z,18.12
2019-01-04T11:35:46.245Z,20.82
2019-01-04T11:37:39.332Z,19.27
2019-01-04T11:39:22.356Z,16.80
2019-01-04T11:40:51.610Z,14.33
2019-01-04T11:42:22.669Z,16.67
2019-01-04T11:44:09.967Z,19.90
2019-01-04T11:46:07.584Z,19.95
2019-01-04T11:47:25.449Z,19.30
2019-01-04T11:49:05.590Z,16.57
2019-01-04T11:50:52.548Z,17.10
2019-01-04T11:52:19.483Z,19.32
2019-01-04T11:53:24.649Z,15.38
2019-01-04T11:54:30.944Z,17.80
2019-01-04T11:55:35.796Z,19.45
2019-01-04T11:56:40.869Z,17.77
2019-01-04T11:57:45.886Z,17.98
2019-01-04T11:58:50.736Z,18.87
2019-01-04T11:59:55.568Z,20.62
2019-01-04T12:01:00.624Z,23.20
2019-01-04T12:02:05.547Z,18.95
2019-01-04T12:03:10.416Z,17.37
2019-01-04T12:04:15.364Z,18.80
2019-01-04T12:05:20.251Z,15.32
2019-01-04T12:06:25.244Z,18.00
2019-01-04T12:07:30.076Z,16.32
2019-01-04T12:08:34.901Z,15.45
2019-01-04T12:09:39.640Z,16.60
2019-01-04T12:10:44.541Z,13.70
2019-01-04T12:11:49.322Z,14.33
2019-01-04T12:12:54.274Z,14.53
2019-01-04T12:13:59.127Z,14.65
2019-01-04T12:15:04.412Z,14.20
2019-01-04T12:16:09.291Z,15.45
2019-01-04T12:17:14.452Z,13.95
2019-01-04T12:18:19.630Z,14.90
2019-01-04T12:19:24.600Z,12.98
2019-01-04T12:20:29.532Z,16.90
2019-01-04T12:21:34.565Z,13.28
2019-01-04T12:22:39.369Z,13.48
2019-01-04T12:23:45.253Z,11.40
2019-01-04T12:24:50.260Z,14.13
2019-01-04T12:25:55.305Z,17.40
2019-01-04T12:27:00.378Z,23.77
2019-01-04T12:28:05.396Z,12.15
2019-01-04T12:29:10.360Z,11.88
2019-01-04T12:30:15.321Z,14.78
2019-01-04T12:31:20.275Z,12.43
2019-01-04T12:32:25.454Z,11.33
2019-01-04T12:33:31.606Z,12.23
2019-01-04T12:34:36.741Z,13.72
2019-01-04T12:35:41.596Z,13.05
2019-01-04T12:36:46.731Z,14.10
2019-01-04T12:37:51.821Z,12.13
2019-01-04T12:38:57.016Z,12.05
2019-01-04T12:40:01.999Z,12.82
2019-01-04T12:41:07.112Z,12.10
2019-01-04T12:42:12.340Z,14.28
2019-01-04T12:43:17.273Z,11.28
2019-01-04T12:44:22.193Z,12.75
2019-01-04T12:45:27.244Z,16.15
2019-01-04T12:46:32.172Z,13.32
2019-01-04T12:47:37.224Z,13.18
2019-01-04T12:48:42.375Z,13.58
2019-01-04T12:49:47.369Z,13.72
2019-01-04T12:50:52.432Z,15.58
2019-01-04T12:51:57.308Z,15.93
2019-01-04T12:53:02.584Z,13.35
2019-01-04T12:54:07.767Z,14.60
2019-01-04T12:55:12.888Z,13.58
2019-01-04T12:56:17.784Z,15.08
2019-01-04T12:57:22.828Z,15.10
2019-01-04T12:58:28.029Z,18.10
2019-01-04T12:59:32.905Z,18.45
2019-01-04T13:00:37.767Z,18.70
2019-01-04T13:01:42.766Z,16.65
2019-01-04T13:02:47.750Z,17.60
2019-01-04T13:03:52.847Z,17.48
2019-01-04T13:04:57.746Z,17.27
2019-01-04T13:06:02.781Z,19.92
2019-01-04T13:07:07.847Z,20.55
2019-01-04T13:08:13.037Z,25.45
2019-01-04T13:09:17.989Z,18.27
2019-01-04T13:10:23.173Z,22.82
2019-01-04T13:11:28.146Z,25.08
2019-01-04T13:12:33.388Z,36.28
2019-01-04T13:13:38.292Z,31.10
2019-01-04T13:14:43.087Z,20.10
2019-01-04T13:15:49.392Z,21.52
2019-01-04T13:16:54.360Z,30.08
2019-01-04T13:17:59.557Z,25.52
2019-01-04T13:19:04.384Z,24.15
2019-01-04T13:20:09.639Z,22.45
2019-01-04T13:21:14.616Z,22.27
2019-01-04T13:22:19.365Z,22.70
2019-01-04T13:23:24.317Z,20.65
2019-01-04T13:24:30.197Z,22.45
2019-01-04T13:25:35.281Z,22.62
2019-01-04T13:26:40.142Z,20.75
2019-01-04T13:27:45.204Z,20.10
2019-01-04T13:28:50.260Z,72.12
2019-01-04T13:29:55.374Z,25.32
2019-01-04T13:31:00.344Z,20.17
2019-01-04T13:32:05.268Z,18.45
2019-01-04T13:33:10.404Z,21.35
2019-01-04T13:34:15.338Z,23.47
2019-01-04T13:35:20.358Z,20.90
2019-01-04T13:36:25.132Z,20.97
2019-01-04T13:37:30.270Z,20.85
2019-01-04T13:38:35.416Z,19.92
2019-01-04T13:39:40.324Z,20.77
2019-01-04T13:40:45.441Z,26.23
2019-01-04T13:41:50.403Z,25.27
2019-01-04T13:42:55.452Z,24.35
2019-01-04T13:44:00.340Z,28.42
2019-01-04T13:45:05.668Z,23.07
2019-01-04T13:46:10.532Z,28.92
2019-01-04T13:47:15.415Z,21.00
2019-01-04T13:48:20.324Z,34.83
2019-01-04T13:49:25.434Z,35.43
2019-01-04T13:50:30.185Z,29.80
2019-01-04T13:51:36.288Z,29.87
2019-01-04T13:52:41.248Z,21.90
2019-01-04T13:53:46.384Z,25.27
2019-01-04T13:54:51.223Z,52.98
2019-01-04T13:55:56.307Z,121.17
2019-01-04T13:57:01.438Z,141.30
2019-01-04T13:58:06.523Z,37.10
2019-01-04T13:59:11.407Z,32.93
2019-01-04T14:00:16.284Z,24.90
2019-01-04T14:01:21.689Z,22.42
2019-01-04T14:02:26.703Z,17.23
2019-01-04T14:03:31.592Z,20.48
2019-01-04T14:04:36.717Z,29.30
2019-01-04T14:05:41.813Z,22.80
2019-01-04T14:06:46.926Z,23.87
2019-01-04T14:07:51.812Z,22.85
2019-01-04T14:08:57.005Z,22.50
2019-01-04T14:10:02.116Z,27.45
2019-01-04T14:11:07.324Z,19.70
2019-01-04T14:12:12.316Z,19.45
2019-01-04T14:13:17.414Z,21.93
2019-01-04T14:14:22.200Z,23.32
2019-01-04T14:15:27.343Z,22.05
2019-01-04T14:16:32.492Z,23.12
2019-01-04T14:17:37.672Z,20.95
2019-01-04T14:18:42.721Z,26.48
2019-01-04T14:19:47.712Z,25.27
2019-01-04T14:20:52.993Z,28.20
2019-01-04T14:21:58.019Z,23.15
2019-01-04T14:23:02.846Z,24.82
2019-01-04T14:24:08.209Z,22.07
2019-01-04T14:25:14.291Z,24.85
2019-01-04T14:26:19.410Z,22.10
2019-01-04T14:27:24.597Z,25.65
2019-01-04T14:28:29.712Z,24.70
2019-01-04T14:29:34.928Z,26.27
2019-01-04T14:30:39.996Z,25.08
2019-01-04T14:31:48.396Z,25.90
2019-01-04T14:32:53.481Z,21.80
2019-01-04T14:33:58.555Z,25.62
2019-01-04T14:35:03.684Z,25.55
2019-01-04T14:36:08.635Z,27.45
2019-01-04T14:37:13.549Z,23.85
2019-01-04T14:38:18.613Z,25.57
2019-01-04T14:39:23.698Z,24.63
2019-01-04T14:40:28.753Z,30.70
2019-01-04T14:41:33.577Z,26.35
2019-01-04T14:42:38.680Z,25.30
2019-01-04T14:43:43.860Z,24.95